Time;durP1;ratioP1;P1;durP2;ratioP2;P2;SDS_P1;SDS_P2;PMS_P1;PMS_P2;Temp;Humidity;BMP_temperature;BMP_pressure;BME280_temperature;BME280_humidity;BME280_pressure;Samples;Min_cycle;Max_cycle;Signal;HPM_P1;HPM_P2
2024/01/16 00:01:26;;;;;;;5.88;1.20;;;;;;;;;;5103173;28;20524;-74
2024/01/16 00:03:57;;;;;;;2.60;1.17;;;;;;;;;;5102806;28;20046;-74
2024/01/16 00:06:28;;;;;;;6.00;1.10;;;;;;;;;;5102792;28;20059;-74
2024/01/16 00:08:58;;;;;;;8.75;1.20;;;;;;;;;;5102995;28;20043;-74
2024/01/16 00:11:29;;;;;;;1.70;1.17;;;;;;;;;;5102910;28;20056;-74
2024/01/16 00:14:00;;;;;;;3.13;1.20;;;;;;;;;;5103915;28;20405;-74
2024/01/16 00:16:31;;;;;;;6.22;1.23;;;;;;;;;;5102750;28;20032;-74
2024/01/16 00:19:02;;;;;;;3.40;1.52;;;;;;;;;;5103165;28;20051;-74
2024/01/16 00:21:33;;;;;;;7.25;1.35;;;;;;;;;;5103041;28;20063;-74
2024/01/16 00:24:03;;;;;;;4.80;1.63;;;;;;;;;;5103423;28;20058;-74
2024/01/16 00:26:34;;;;;;;2.60;1.40;;;;;;;;;;5103064;28;20047;-74
2024/01/16 00:29:04;;;;;;;5.00;1.30;;;;;;;;;;5103398;28;20044;-74
2024/01/16 00:31:34;;;;;;;1.98;1.33;;;;;;;;;;5102587;28;20040;-74
2024/01/16 00:34:06;;;;;;;7.18;1.40;;;;;;;;;;5102688;28;20383;-74
2024/01/16 00:36:37;;;;;;;5.25;1.05;;;;;;;;;;5101901;28;20052;-74
2024/01/16 00:39:08;;;;;;;2.60;1.25;;;;;;;;;;5102517;28;20398;-74
2024/01/16 00:41:39;;;;;;;3.63;1.20;;;;;;;;;;5102854;28;20043;-74
2024/01/16 00:44:10;;;;;;;2.15;1.20;;;;;;;;;;5102383;28;20044;-74
2024/01/16 00:46:43;;;;;;;3.55;1.30;;;;;;;;;;5102366;28;20652;-74
2024/01/16 00:49:13;;;;;;;2.47;1.25;;;;;;;;;;5102209;28;20043;-76
2024/01/16 00:51:47;;;;;;;2.15;1.20;;;;;;;;;;5102763;28;20050;-75
2024/01/16 00:54:17;;;;;;;3.25;1.13;;;;;;;;;;5102525;28;20539;-74
2024/01/16 00:56:49;;;;;;;2.65;1.20;;;;;;;;;;5102422;28;20048;-73
2024/01/16 00:59:20;;;;;;;3.05;1.48;;;;;;;;;;5102264;28;20051;-74
2024/01/16 01:01:50;;;;;;;2.67;1.35;;;;;;;;;;5101801;28;20043;-74
2024/01/16 01:04:20;;;;;;;2.50;1.52;;;;;;;;;;5102262;28;20409;-76
2024/01/16 01:06:51;;;;;;;12.50;1.70;;;;;;;;;;5102268;28;20050;-74
2024/01/16 01:09:21;;;;;;;5.65;1.52;;;;;;;;;;5103278;28;20427;-74
2024/01/16 01:11:51;;;;;;;5.03;1.40;;;;;;;;;;5102570;28;20059;-74
2024/01/16 01:14:23;;;;;;;4.70;1.40;;;;;;;;;;5101944;28;20039;-74
2024/01/16 01:16:54;;;;;;;10.88;2.30;;;;;;;;;;5102198;28;20043;-74
2024/01/16 01:19:26;;;;;;;2.67;1.33;;;;;;;;;;5101649;28;20059;-74
2024/01/16 01:21:57;;;;;;;4.40;1.30;;;;;;;;;;5101913;28;20615;-74
2024/01/16 01:24:27;;;;;;;3.08;1.50;;;;;;;;;;5102706;28;20050;-74
2024/01/16 01:26:58;;;;;;;4.13;1.38;;;;;;;;;;5102423;28;20048;-75
2024/01/16 01:29:28;;;;;;;1.98;1.17;;;;;;;;;;5101999;28;20043;-75
2024/01/16 01:31:58;;;;;;;2.33;1.30;;;;;;;;;;5101561;28;20405;-75
2024/01/16 01:34:28;;;;;;;2.42;1.80;;;;;;;;;;5102396;28;20047;-77
2024/01/16 01:36:59;;;;;;;5.45;1.50;;;;;;;;;;5102580;28;20513;-75
2024/01/16 01:39:31;;;;;;;7.72;1.58;;;;;;;;;;5102736;28;20051;-75
2024/01/16 01:42:01;;;;;;;9.75;1.42;;;;;;;;;;5102843;28;20043;-75
2024/01/16 01:44:32;;;;;;;2.45;1.50;;;;;;;;;;5102252;28;20051;-75
2024/01/16 01:47:02;;;;;;;2.40;1.55;;;;;;;;;;5101623;28;20044;-74
2024/01/16 01:49:34;;;;;;;5.78;1.40;;;;;;;;;;5101803;28;20039;-75
2024/01/16 01:52:06;;;;;;;9.77;1.60;;;;;;;;;;5101961;28;20052;-74
2024/01/16 01:54:38;;;;;;;6.88;1.50;;;;;;;;;;5100401;28;20056;-74
2024/01/16 01:57:10;;;;;;;2.95;1.50;;;;;;;;;;5102522;28;20051;-75
2024/01/16 01:59:41;;;;;;;1.40;1.27;;;;;;;;;;5105738;28;20044;-75
2024/01/16 02:02:12;;;;;;;8.82;1.65;;;;;;;;;;5104579;28;20051;-75
2024/01/16 02:04:46;;;;;;;5.65;1.60;;;;;;;;;;5104965;28;20047;-74
2024/01/16 02:07:18;;;;;;;6.45;1.67;;;;;;;;;;5105258;28;20853;-74
2024/01/16 02:09:49;;;;;;;5.55;1.33;;;;;;;;;;5105799;28;20047;-74
2024/01/16 02:12:23;;;;;;;6.20;1.63;;;;;;;;;;5105479;28;20039;-74
2024/01/16 02:14:55;;;;;;;3.22;1.65;;;;;;;;;;5105835;28;20047;-74
2024/01/16 02:17:24;;;;;;;5.32;1.73;;;;;;;;;;5105395;28;20430;-74
2024/01/16 02:19:56;;;;;;;3.78;1.67;;;;;;;;;;5105381;28;20051;-73
2024/01/16 02:22:29;;;;;;;4.47;1.63;;;;;;;;;;5105976;28;20054;-75
2024/01/16 02:24:59;;;;;;;4.10;1.50;;;;;;;;;;5105381;28;20402;-74
2024/01/16 02:27:29;;;;;;;3.55;1.67;;;;;;;;;;5105440;28;20044;-74
2024/01/16 02:29:59;;;;;;;4.10;1.83;;;;;;;;;;5106114;28;20047;-74
2024/01/16 02:32:30;;;;;;;5.20;1.45;;;;;;;;;;5104102;28;20517;-74
2024/01/16 02:35:01;;;;;;;4.50;1.52;;;;;;;;;;5103592;27;20060;-74
2024/01/16 02:37:32;;;;;;;5.57;1.50;;;;;;;;;;5105744;28;20051;-74
2024/01/16 02:40:05;;;;;;;3.10;1.65;;;;;;;;;;5104856;28;20054;-75
2024/01/16 02:42:37;;;;;;;3.03;1.60;;;;;;;;;;5105292;28;20052;-74
2024/01/16 02:45:09;;;;;;;3.83;1.52;;;;;;;;;;5104927;28;20044;-75
2024/01/16 02:47:40;;;;;;;4.25;1.83;;;;;;;;;;5105408;28;20054;-73
2024/01/16 02:50:10;;;;;;;5.47;2.03;;;;;;;;;;5104999;28;20043;-74
2024/01/16 02:52:41;;;;;;;3.08;1.58;;;;;;;;;;5104394;28;20039;-74
2024/01/16 02:55:13;;;;;;;4.43;1.77;;;;;;;;;;5104594;28;21155;-74
2024/01/16 02:57:43;;;;;;;5.07;1.70;;;;;;;;;;5105161;28;20060;-74
2024/01/16 03:00:14;;;;;;;2.75;1.90;;;;;;;;;;5105390;28;20048;-75
2024/01/16 03:02:46;;;;;;;1.98;1.77;;;;;;;;;;5104617;28;20052;-75
2024/01/16 03:05:20;;;;;;;5.60;1.98;;;;;;;;;;5104556;28;20054;-74
2024/01/16 03:07:50;;;;;;;2.47;1.80;;;;;;;;;;5105000;28;20048;-73
2024/01/16 03:10:21;;;;;;;6.25;1.80;;;;;;;;;;5104421;28;20741;-72
2024/01/16 03:12:52;;;;;;;4.78;1.60;;;;;;;;;;5104458;28;20509;-73
2024/01/16 03:15:23;;;;;;;4.63;1.80;;;;;;;;;;5104576;28;20412;-72
2024/01/16 03:17:53;;;;;;;4.90;1.88;;;;;;;;;;5104295;28;20054;-72
2024/01/16 03:20:24;;;;;;;3.85;1.90;;;;;;;;;;5104292;28;20054;-72
2024/01/16 03:22:57;;;;;;;3.40;1.90;;;;;;;;;;5102563;28;20056;-71
2024/01/16 03:25:28;;;;;;;6.22;2.10;;;;;;;;;;5104404;28;20054;-73
2024/01/16 03:27:58;;;;;;;3.80;1.80;;;;;;;;;;5104254;28;20047;-72
2024/01/16 03:30:29;;;;;;;5.25;2.00;;;;;;;;;;5104111;28;20414;-72
2024/01/16 03:33:00;;;;;;;4.50;2.45;;;;;;;;;;5104807;28;20051;-72
2024/01/16 03:35:31;;;;;;;5.53;2.13;;;;;;;;;;5104214;28;20051;-72
2024/01/16 03:38:03;;;;;;;8.95;2.20;;;;;;;;;;5103815;28;20047;-71
2024/01/16 03:40:34;;;;;;;2.65;1.70;;;;;;;;;;5103210;27;20047;-73
2024/01/16 03:43:05;;;;;;;4.85;1.52;;;;;;;;;;5103732;28;20066;-71
2024/01/16 03:45:37;;;;;;;1.60;1.42;;;;;;;;;;5102581;28;20043;-72
2024/01/16 03:48:07;;;;;;;6.90;2.08;;;;;;;;;;5103064;28;20047;-72
2024/01/16 03:50:38;;;;;;;10.77;2.10;;;;;;;;;;5104248;28;20040;-72
2024/01/16 03:53:09;;;;;;;4.32;1.90;;;;;;;;;;5103370;28;20044;-72
2024/01/16 03:55:39;;;;;;;3.50;1.90;;;;;;;;;;5103305;28;20828;-72
2024/01/16 03:58:10;;;;;;;6.28;2.08;;;;;;;;;;5103784;28;20793;-72
2024/01/16 04:00:41;;;;;;;5.57;2.10;;;;;;;;;;5103061;28;20432;-72
2024/01/16 04:03:13;;;;;;;4.55;1.80;;;;;;;;;;5103553;28;20047;-71
2024/01/16 04:05:44;;;;;;;6.75;1.65;;;;;;;;;;5103530;28;20054;-73
2024/01/16 04:08:16;;;;;;;6.00;2.10;;;;;;;;;;5103107;28;20070;-71
2024/01/16 04:10:46;;;;;;;7.00;2.08;;;;;;;;;;5103773;28;20043;-72
2024/01/16 04:13:17;;;;;;;5.80;1.75;;;;;;;;;;5102587;28;21408;-72
2024/01/16 04:15:49;;;;;;;8.73;2.08;;;;;;;;;;5101940;27;20054;-73
2024/01/16 04:18:20;;;;;;;2.40;1.85;;;;;;;;;;5103673;28;21092;-72
2024/01/16 04:20:51;;;;;;;4.57;2.05;;;;;;;;;;5101999;28;20051;-72
2024/01/16 04:23:23;;;;;;;5.05;2.20;;;;;;;;;;5102896;28;20051;-73
2024/01/16 04:25:54;;;;;;;4.82;1.58;;;;;;;;;;5102933;28;20078;-71
2024/01/16 04:28:25;;;;;;;5.63;1.80;;;;;;;;;;5102853;28;20063;-71
2024/01/16 04:30:56;;;;;;;5.18;2.00;;;;;;;;;;5102546;28;20056;-72
2024/01/16 04:33:27;;;;;;;7.22;2.05;;;;;;;;;;5102082;28;20514;-72
2024/01/16 04:35:58;;;;;;;2.05;1.85;;;;;;;;;;5103647;28;20062;-71
2024/01/16 04:38:29;;;;;;;12.60;2.10;;;;;;;;;;5102594;28;20066;-73
2024/01/16 04:41:02;;;;;;;2.33;1.92;;;;;;;;;;5102868;28;20051;-73
2024/01/16 04:43:34;;;;;;;3.50;1.92;;;;;;;;;;5101719;28;20518;-72
2024/01/16 04:46:04;;;;;;;5.40;2.20;;;;;;;;;;5103256;28;20052;-72
2024/01/16 04:48:34;;;;;;;5.00;2.17;;;;;;;;;;5102638;28;20104;-74
2024/01/16 04:51:05;;;;;;;7.10;1.80;;;;;;;;;;5102808;28;20051;-74
2024/01/16 04:53:37;;;;;;;2.20;2.00;;;;;;;;;;5103246;28;20043;-75
2024/01/16 04:56:08;;;;;;;2.78;1.98;;;;;;;;;;5102395;28;20059;-75
2024/01/16 04:58:38;;;;;;;2.95;2.13;;;;;;;;;;5103194;28;20040;-74
2024/01/16 05:01:08;;;;;;;2.25;2.03;;;;;;;;;;5102251;28;20397;-74
2024/01/16 05:03:39;;;;;;;4.57;1.88;;;;;;;;;;5102839;28;20047;-75
2024/01/16 05:06:15;;;;;;;3.67;2.10;;;;;;;;;;5102306;28;20051;-74
2024/01/16 05:08:46;;;;;;;2.30;1.92;;;;;;;;;;5102543;28;20047;-74
2024/01/16 05:11:16;;;;;;;5.03;2.25;;;;;;;;;;5102449;28;20505;-74
2024/01/16 05:13:46;;;;;;;4.60;2.20;;;;;;;;;;5101989;28;20066;-74
2024/01/16 05:16:18;;;;;;;2.88;2.30;;;;;;;;;;5102447;28;20070;-72
2024/01/16 05:18:49;;;;;;;3.95;2.30;;;;;;;;;;5102193;28;20055;-72
2024/01/16 05:21:20;;;;;;;2.40;2.13;;;;;;;;;;5101643;28;20048;-72
2024/01/16 05:23:51;;;;;;;5.60;2.13;;;;;;;;;;5102603;28;20431;-72
2024/01/16 05:26:22;;;;;;;2.80;2.08;;;;;;;;;;5101518;28;20055;-71
2024/01/16 05:28:53;;;;;;;5.65;2.00;;;;;;;;;;5102484;28;20048;-72
2024/01/16 05:31:24;;;;;;;4.65;2.13;;;;;;;;;;5102977;28;20476;-72
2024/01/16 05:33:55;;;;;;;3.13;1.75;;;;;;;;;;5105632;28;20043;-72
2024/01/16 05:36:27;;;;;;;5.10;1.95;;;;;;;;;;5105770;28;20048;-72
2024/01/16 05:38:58;;;;;;;4.35;1.85;;;;;;;;;;5106653;28;20059;-73
2024/01/16 05:41:34;;;;;;;3.50;1.30;;;;;;;;;;5106245;28;20055;-71
2024/01/16 05:44:05;;;;;;;7.20;2.13;;;;;;;;;;5105777;28;20048;-72
2024/01/16 05:46:35;;;;;;;5.00;2.17;;;;;;;;;;5106192;28;20050;-72
2024/01/16 05:49:06;;;;;;;3.17;1.67;;;;;;;;;;5105818;28;20051;-72
2024/01/16 05:51:37;;;;;;;6.75;2.28;;;;;;;;;;5106245;28;20051;-72
2024/01/16 05:54:06;;;;;;;6.78;2.00;;;;;;;;;;5106058;28;20058;-72
2024/01/16 05:56:37;;;;;;;6.50;1.98;;;;;;;;;;5104600;28;20059;-71
2024/01/16 05:59:08;;;;;;;3.95;2.17;;;;;;;;;;5103397;28;20051;-72
2024/01/16 06:01:39;;;;;;;6.88;2.13;;;;;;;;;;5103169;28;20539;-72
2024/01/16 06:04:10;;;;;;;2.60;2.17;;;;;;;;;;5102190;27;20063;-72
2024/01/16 06:06:45;;;;;;;3.90;2.00;;;;;;;;;;5102168;27;20529;-72
2024/01/16 06:09:15;;;;;;;3.00;2.25;;;;;;;;;;5103418;28;20056;-72
2024/01/16 06:11:46;;;;;;;4.03;1.98;;;;;;;;;;5102669;28;20059;-72
2024/01/16 06:14:21;;;;;;;4.03;2.20;;;;;;;;;;5102613;28;20082;-72
2024/01/16 06:16:51;;;;;;;7.50;2.30;;;;;;;;;;5102535;28;20110;-72
2024/01/16 06:19:21;;;;;;;3.80;2.40;;;;;;;;;;5102856;28;20052;-72
2024/01/16 06:21:52;;;;;;;2.40;2.20;;;;;;;;;;5102714;28;20082;-72
2024/01/16 06:24:24;;;;;;;5.15;2.08;;;;;;;;;;5102918;28;20051;-72
2024/01/16 06:26:54;;;;;;;7.95;1.88;;;;;;;;;;5102792;28;20054;-74
2024/01/16 06:29:25;;;;;;;3.25;1.70;;;;;;;;;;5102591;28;20117;-74
2024/01/16 06:32:03;;;;;;;3.28;2.33;;;;;;;;;;5102697;28;20070;-75
2024/01/16 06:34:34;;;;;;;2.97;2.10;;;;;;;;;;5102815;28;20050;-75
2024/01/16 06:37:06;;;;;;;6.45;2.13;;;;;;;;;;5102509;28;20052;-74
2024/01/16 06:39:37;;;;;;;9.23;2.60;;;;;;;;;;5102334;28;20532;-74
2024/01/16 06:42:08;;;;;;;15.45;2.70;;;;;;;;;;5102436;28;20071;-74
2024/01/16 06:44:41;;;;;;;8.35;2.30;;;;;;;;;;5102060;28;20051;-72
2024/01/16 06:47:12;;;;;;;5.18;2.15;;;;;;;;;;5102466;28;20043;-72
2024/01/16 06:49:42;;;;;;;2.47;2.25;;;;;;;;;;5102072;28;20584;-72
2024/01/16 06:52:12;;;;;;;7.88;2.33;;;;;;;;;;5101941;28;20727;-72
2024/01/16 06:54:42;;;;;;;4.53;2.08;;;;;;;;;;5101602;28;20051;-72
2024/01/16 06:57:13;;;;;;;5.32;2.15;;;;;;;;;;5101800;28;20058;-71
2024/01/16 06:59:43;;;;;;;5.45;2.28;;;;;;;;;;5101862;28;20047;-72
2024/01/16 07:02:17;;;;;;;5.55;1.83;;;;;;;;;;5102429;28;20505;-72
2024/01/16 07:04:48;;;;;;;7.07;2.65;;;;;;;;;;5101794;28;20044;-72
2024/01/16 07:07:20;;;;;;;8.02;2.60;;;;;;;;;;5101382;28;20391;-72
2024/01/16 07:09:51;;;;;;;5.47;2.20;;;;;;;;;;5102012;28;20035;-71
2024/01/16 07:12:21;;;;;;;4.10;2.58;;;;;;;;;;5101777;28;20062;-72
2024/01/16 07:14:51;;;;;;;5.68;2.13;;;;;;;;;;5102195;28;20055;-72
2024/01/16 07:17:22;;;;;;;5.72;2.58;;;;;;;;;;5101948;28;20047;-72
2024/01/16 07:19:55;;;;;;;5.28;2.53;;;;;;;;;;5101766;28;20055;-72
2024/01/16 07:22:27;;;;;;;8.38;2.25;;;;;;;;;;5101277;28;20055;-72
2024/01/16 07:24:57;;;;;;;9.10;2.30;;;;;;;;;;5101483;28;20039;-72
2024/01/16 07:27:27;;;;;;;5.10;2.45;;;;;;;;;;5101351;28;20631;-72
2024/01/16 07:29:57;;;;;;;6.15;2.42;;;;;;;;;;5099648;28;20510;-72
2024/01/16 07:32:28;;;;;;;3.92;2.35;;;;;;;;;;5101573;28;20059;-72
2024/01/16 07:35:02;;;;;;;4.18;2.13;;;;;;;;;;5101436;28;20062;-72
2024/01/16 07:37:32;;;;;;;6.30;2.38;;;;;;;;;;5100998;28;20039;-74
2024/01/16 07:40:05;;;;;;;3.10;2.63;;;;;;;;;;5101168;28;20047;-74
2024/01/16 07:42:36;;;;;;;4.35;2.45;;;;;;;;;;5100950;28;20074;-74
2024/01/16 07:45:08;;;;;;;3.75;2.05;;;;;;;;;;5101234;28;20110;-74
2024/01/16 07:47:38;;;;;;;2.63;1.77;;;;;;;;;;5101231;28;20125;-74
2024/01/16 07:50:10;;;;;;;2.88;2.10;;;;;;;;;;5100658;28;20048;-74
2024/01/16 07:52:41;;;;;;;5.85;2.15;;;;;;;;;;5101018;28;20567;-74
2024/01/16 07:55:11;;;;;;;7.07;2.60;;;;;;;;;;5099606;28;20414;-74
2024/01/16 07:57:42;;;;;;;7.78;2.90;;;;;;;;;;5100998;28;20036;-74
2024/01/16 08:00:12;;;;;;;5.97;2.45;;;;;;;;;;5101068;28;20527;-72
2024/01/16 08:02:43;;;;;;;5.97;2.25;;;;;;;;;;5100672;28;20492;-72
2024/01/16 08:05:15;;;;;;;3.90;2.20;;;;;;;;;;5100344;28;20044;-72
2024/01/16 08:07:46;;;;;;;5.88;2.33;;;;;;;;;;5100339;28;20051;-72
2024/01/16 08:10:16;;;;;;;6.18;2.20;;;;;;;;;;5100701;28;20425;-72
2024/01/16 08:12:48;;;;;;;6.78;2.47;;;;;;;;;;5100144;28;20043;-72
2024/01/16 08:15:19;;;;;;;6.45;2.40;;;;;;;;;;5099943;28;20059;-72
2024/01/16 08:17:50;;;;;;;4.65;2.35;;;;;;;;;;5100218;28;20043;-72
2024/01/16 08:20:20;;;;;;;3.35;2.33;;;;;;;;;;5100806;28;20047;-72
2024/01/16 08:22:51;;;;;;;6.82;2.78;;;;;;;;;;5100130;28;20051;-75
2024/01/16 08:25:23;;;;;;;12.55;3.47;;;;;;;;;;5100086;28;20055;-74
2024/01/16 08:27:54;;;;;;;7.78;2.80;;;;;;;;;;5101080;28;20055;-74
2024/01/16 08:30:24;;;;;;;16.30;3.40;;;;;;;;;;5100036;28;20039;-74
2024/01/16 08:32:54;;;;;;;6.75;3.10;;;;;;;;;;5100218;28;20039;-74
2024/01/16 08:35:24;;;;;;;8.75;3.13;;;;;;;;;;5100426;28;20047;-74
2024/01/16 08:37:56;;;;;;;13.73;3.13;;;;;;;;;;5100446;28;20040;-72
2024/01/16 08:40:26;;;;;;;6.30;3.45;;;;;;;;;;5101088;28;20040;-72
2024/01/16 08:42:57;;;;;;;20.88;3.88;;;;;;;;;;5099432;27;20056;-72
2024/01/16 08:45:27;;;;;;;15.45;3.05;;;;;;;;;;5099639;28;20039;-72
2024/01/16 08:47:58;;;;;;;8.73;2.95;;;;;;;;;;5098922;27;20054;-75
2024/01/16 08:50:31;;;;;;;11.02;3.65;;;;;;;;;;5100075;28;20528;-75
2024/01/16 08:53:02;;;;;;;9.15;2.85;;;;;;;;;;5099079;28;20057;-78
2024/01/16 08:55:32;;;;;;;10.98;2.83;;;;;;;;;;5099693;28;20588;-74
2024/01/16 08:58:03;;;;;;;13.73;2.80;;;;;;;;;;5099941;28;20048;-74
2024/01/16 09:00:33;;;;;;;5.00;2.80;;;;;;;;;;5100029;28;20048;-75
2024/01/16 09:03:04;;;;;;;4.10;2.72;;;;;;;;;;5099346;28;20043;-75
2024/01/16 09:05:38;;;;;;;6.05;2.65;;;;;;;;;;5099579;28;20505;-75
2024/01/16 09:08:11;;;;;;;7.45;2.78;;;;;;;;;;5098927;28;20550;-75
2024/01/16 09:10:42;;;;;;;2.67;2.33;;;;;;;;;;5098799;27;20055;-75
2024/01/16 09:13:13;;;;;;;3.95;2.95;;;;;;;;;;5099919;28;20508;-74
2024/01/16 09:15:43;;;;;;;8.43;2.88;;;;;;;;;;5099682;28;20051;-75
2024/01/16 09:18:14;;;;;;;3.50;2.63;;;;;;;;;;5099087;28;20078;-75
2024/01/16 09:20:46;;;;;;;9.63;3.55;;;;;;;;;;5099688;28;20043;-75
2024/01/16 09:23:17;;;;;;;35.20;3.50;;;;;;;;;;5099651;28;20063;-72
2024/01/16 09:25:47;;;;;;;17.38;3.40;;;;;;;;;;5099603;28;20040;-74
2024/01/16 09:28:18;;;;;;;35.75;5.45;;;;;;;;;;5100532;28;20040;-74
2024/01/16 09:30:50;;;;;;;13.30;3.13;;;;;;;;;;5100850;28;20413;-74
2024/01/16 09:33:20;;;;;;;19.05;3.40;;;;;;;;;;5101477;28;20050;-74
2024/01/16 09:35:51;;;;;;;8.80;2.67;;;;;;;;;;5102179;28;20055;-73
2024/01/16 09:38:22;;;;;;;11.02;2.90;;;;;;;;;;5102364;28;20043;-74
2024/01/16 09:40:58;;;;;;;5.82;3.10;;;;;;;;;;5102053;28;20406;-74
2024/01/16 09:43:30;;;;;;;6.78;2.75;;;;;;;;;;5101581;28;20498;-74
2024/01/16 09:46:06;;;;;;;3.58;2.63;;;;;;;;;;5102443;28;20514;-75
2024/01/16 09:48:36;;;;;;;7.35;2.80;;;;;;;;;;5100812;28;20044;-75
2024/01/16 09:51:07;;;;;;;2.53;2.33;;;;;;;;;;5102581;28;20043;-74
2024/01/16 09:53:38;;;;;;;6.40;1.88;;;;;;;;;;5102283;28;20406;-75
2024/01/16 09:56:16;;;;;;;2.65;2.03;;;;;;;;;;5101905;28;20047;-75
2024/01/16 09:58:50;;;;;;;2.10;1.83;;;;;;;;;;5102435;28;20046;-75
2024/01/16 10:01:22;;;;;;;6.43;2.15;;;;;;;;;;5102407;28;20044;-74
2024/01/16 10:03:55;;;;;;;5.90;1.98;;;;;;;;;;5101154;28;20048;-74
2024/01/16 10:06:28;;;;;;;12.20;2.75;;;;;;;;;;5101850;28;20058;-74
2024/01/16 10:08:59;;;;;;;5.88;5.07;;;;;;;;;;5101826;28;20040;-74
2024/01/16 10:11:30;;;;;;;4.22;3.17;;;;;;;;;;5102358;28;20047;-74
2024/01/16 10:14:01;;;;;;;4.35;2.60;;;;;;;;;;5101822;28;20044;-74
2024/01/16 10:16:57;;;;;;;7.45;3.50;;;;;;;;;;5100515;28;20051;-73
2024/01/16 10:19:29;;;;;;;6.97;3.25;;;;;;;;;;5104630;28;20094;-74
2024/01/16 10:22:22;;;;;;;8.80;3.45;;;;;;;;;;5104838;28;20555;-74
2024/01/16 10:25:12;;;;;;;6.47;3.33;;;;;;;;;;5105146;28;20048;-77
2024/01/16 10:27:43;;;;;;;;;;;;;;;;;;5106757;28;20062;-74
2024/01/16 10:30:13;;;;;;;8.02;2.83;;;;;;;;;;5106369;28;20558;-74
2024/01/16 10:32:44;;;;;;;7.97;2.63;;;;;;;;;;5105662;28;20047;-74
2024/01/16 10:35:15;;;;;;;3.58;2.65;;;;;;;;;;5104011;27;20421;-74
2024/01/16 10:37:53;;;;;;;5.05;2.67;;;;;;;;;;5105071;28;20604;-78
2024/01/16 10:40:29;;;;;;;8.27;2.75;;;;;;;;;;5104880;28;20054;-74
2024/01/16 10:43:05;;;;;;;4.30;2.60;;;;;;;;;;5105425;28;20039;-74
2024/01/16 10:45:36;;;;;;;4.75;2.53;;;;;;;;;;5104963;28;20048;-74
2024/01/16 10:48:08;;;;;;;6.88;2.35;;;;;;;;;;5104653;28;20044;-75
2024/01/16 10:50:40;;;;;;;4.40;2.17;;;;;;;;;;5104669;28;20510;-74
2024/01/16 10:53:15;;;;;;;5.60;1.92;;;;;;;;;;5104078;28;20043;-74
2024/01/16 10:55:46;;;;;;;;;;;;;;;;;;5104921;28;20043;-74
2024/01/16 10:58:16;;;;;;;3.47;1.95;;;;;;;;;;5104406;28;19928;-82
2024/01/16 11:00:50;;;;;;;5.53;2.28;;;;;;;;;;5104580;28;20047;-75
2024/01/16 11:03:37;;;;;;;4.53;2.22;;;;;;;;;;5104422;28;20048;-74
2024/01/16 11:06:09;;;;;;;;;;;;;;;;;;5104919;28;20417;-74
2024/01/16 11:08:40;;;;;;;8.18;1.80;;;;;;;;;;5103066;28;19935;-74
2024/01/16 11:11:13;;;;;;;10.60;2.13;;;;;;;;;;5102637;28;20048;-74
2024/01/16 11:13:46;;;;;;;2.28;1.90;;;;;;;;;;5104263;28;20039;-74
2024/01/16 11:16:18;;;;;;;3.90;1.98;;;;;;;;;;5104803;28;20050;-74
2024/01/16 11:18:49;;;;;;;7.75;1.83;;;;;;;;;;5104809;28;20046;-74
2024/01/16 11:21:19;;;;;;;4.13;1.67;;;;;;;;;;5104401;28;20418;-75
2024/01/16 11:23:52;;;;;;;4.68;1.88;;;;;;;;;;5104710;28;20071;-75
2024/01/16 11:26:36;;;;;;;5.55;1.60;;;;;;;;;;5102574;28;20510;-74
2024/01/16 11:29:28;;;;;;;3.70;1.70;;;;;;;;;;5103950;28;20043;-74
2024/01/16 11:32:00;;;;;;;2.38;1.70;;;;;;;;;;5103962;28;20067;-75
2024/01/16 11:34:51;;;;;;;5.93;1.65;;;;;;;;;;5104070;28;20040;-74
2024/01/16 11:37:32;;;;;;;5.72;2.63;;;;;;;;;;5104262;28;20046;-77
2024/01/16 11:40:20;;;;;;;3.25;1.60;;;;;;;;;;5103919;28;20051;-74
2024/01/16 11:42:56;;;;;;;6.35;1.83;;;;;;;;;;5104102;28;20056;-76
2024/01/16 11:45:48;;;;;;;11.48;2.25;;;;;;;;;;5104731;28;20043;-75
2024/01/16 11:48:20;;;;;;;3.53;1.52;;;;;;;;;;5103632;28;20438;-77
2024/01/16 11:50:52;;;;;;;3.78;1.42;;;;;;;;;;5103659;28;20810;-75
2024/01/16 11:53:39;;;;;;;6.38;1.75;;;;;;;;;;5103539;28;20051;-75
2024/01/16 11:56:48;;;;;;;3.13;1.98;;;;;;;;;;5103424;28;20055;-78
2024/01/16 11:59:30;;;;;;;2.03;1.42;;;;;;;;;;5082552;28;20059;-77
2024/01/16 12:02:06;;;;;;;7.10;3.13;;;;;;;;;;5103661;28;20054;-76
2024/01/16 12:04:36;;;;;;;5.50;2.08;;;;;;;;;;5103599;28;20043;-76
2024/01/16 12:07:07;;;;;;;2.97;2.17;;;;;;;;;;5102024;27;20427;-75
2024/01/16 12:09:38;;;;;;;2.55;1.42;;;;;;;;;;5103240;28;20105;-75
2024/01/16 12:12:09;;;;;;;4.35;1.58;;;;;;;;;;5103166;28;20631;-75
2024/01/16 12:14:40;;;;;;;2.10;1.48;;;;;;;;;;5103801;28;20040;-82
2024/01/16 12:17:15;;;;;;;5.80;1.40;;;;;;;;;;5102772;28;20066;-74
2024/01/16 12:19:46;;;;;;;8.00;1.35;;;;;;;;;;5102793;28;21156;-74
2024/01/16 12:22:24;;;;;;;4.15;1.27;;;;;;;;;;5103204;28;20059;-74
2024/01/16 12:24:58;;;;;;;4.97;1.40;;;;;;;;;;5102514;27;20055;-77
2024/01/16 12:27:29;;;;;;;3.10;1.42;;;;;;;;;;5102685;28;20044;-75
2024/01/16 12:30:10;;;;;;;1.90;1.10;;;;;;;;;;5103103;28;20044;-74
2024/01/16 12:32:41;;;;;;;3.70;1.40;;;;;;;;;;5103203;28;20040;-75
2024/01/16 12:35:23;;;;;;;4.75;1.30;;;;;;;;;;5103502;28;20074;-75
2024/01/16 12:38:01;;;;;;;3.15;1.30;;;;;;;;;;5104118;28;20074;-75
2024/01/16 12:40:33;;;;;;;2.20;1.00;;;;;;;;;;5102818;28;20055;-74
2024/01/16 12:43:05;;;;;;;6.03;1.40;;;;;;;;;;5103178;28;20055;-75
2024/01/16 12:45:35;;;;;;;4.03;0.90;;;;;;;;;;5102882;28;20050;-75
2024/01/16 12:48:08;;;;;;;1.23;1.00;;;;;;;;;;5102206;28;20048;-79
2024/01/16 12:50:40;;;;;;;3.60;1.75;;;;;;;;;;5102665;28;20540;-75
2024/01/16 12:53:12;;;;;;;1.85;1.23;;;;;;;;;;5102813;28;20051;-75
2024/01/16 12:55:42;;;;;;;3.72;1.08;;;;;;;;;;5102500;28;20056;-76
2024/01/16 12:58:27;;;;;;;5.35;1.05;;;;;;;;;;5102270;28;20074;-75
2024/01/16 13:01:18;;;;;;;1.60;1.10;;;;;;;;;;5102435;28;20050;-75
2024/01/16 13:04:04;;;;;;;6.50;1.30;;;;;;;;;;5100355;28;20044;-75
2024/01/16 13:06:35;;;;;;;1.45;1.15;;;;;;;;;;5103148;28;20043;-75
2024/01/16 13:09:14;;;;;;;3.67;1.80;;;;;;;;;;5102576;28;20046;-75
2024/01/16 13:11:51;;;;;;;1.50;1.05;;;;;;;;;;5103913;28;20494;-75
2024/01/16 13:14:22;;;;;;;2.95;1.20;;;;;;;;;;5102703;28;20040;-75
2024/01/16 13:16:56;;;;;;;1.23;0.93;;;;;;;;;;5101962;28;20050;-75
2024/01/16 13:19:33;;;;;;;2.40;1.05;;;;;;;;;;5102445;28;20048;-75
2024/01/16 13:22:05;;;;;;;3.70;1.17;;;;;;;;;;5099631;28;20055;-75
2024/01/16 13:24:35;;;;;;;2.08;1.20;;;;;;;;;;5102197;28;20048;-75
2024/01/16 13:27:09;;;;;;;2.83;0.97;;;;;;;;;;5102945;28;20043;-75
2024/01/16 13:29:40;;;;;;;2.03;1.08;;;;;;;;;;5102384;28;20551;-75
2024/01/16 13:32:10;;;;;;;2.75;1.15;;;;;;;;;;5101765;28;20418;-77
2024/01/16 13:34:46;;;;;;;7.15;2.60;;;;;;;;;;5101960;28;20523;-75
2024/01/16 13:37:23;;;;;;;3.50;0.90;;;;;;;;;;5102200;28;20047;-78
2024/01/16 13:39:53;;;;;;;3.35;1.23;;;;;;;;;;5102038;28;20039;-78
2024/01/16 13:42:25;;;;;;;2.20;0.80;;;;;;;;;;5102586;28;20054;-81
2024/01/16 13:44:54;;;;;;;1.17;1.00;;;;;;;;;;5103144;28;20048;-78
2024/01/16 13:47:25;;;;;;;2.63;1.05;;;;;;;;;;5101543;28;20501;-74
2024/01/16 13:49:56;;;;;;;1.25;0.95;;;;;;;;;;5102547;28;20070;-82
2024/01/16 13:52:28;;;;;;;0.60;0.60;;;;;;;;;;5102713;28;20489;-79
2024/01/16 13:54:59;;;;;;;1.88;1.10;;;;;;;;;;5105832;28;20502;-79
2024/01/16 13:57:29;;;;;;;2.28;1.10;;;;;;;;;;5105750;28;20051;-75
2024/01/16 14:00:00;;;;;;;1.73;0.80;;;;;;;;;;5105504;28;20055;-76
2024/01/16 14:02:43;;;;;;;4.60;1.10;;;;;;;;;;5110667;28;20052;-79
2024/01/16 14:05:15;;;;;;;1.35;0.60;;;;;;;;;;5105946;28;20063;-77
2024/01/16 14:07:47;;;;;;;1.02;0.70;;;;;;;;;;5105594;28;20409;-76
2024/01/16 14:10:22;;;;;;;1.05;0.63;;;;;;;;;;5106148;28;20058;-78
2024/01/16 14:12:53;;;;;;;1.92;1.00;;;;;;;;;;5105584;28;20405;-78
2024/01/16 14:15:24;;;;;;;4.95;0.98;;;;;;;;;;5105545;28;20054;-79
2024/01/16 14:17:56;;;;;;;2.05;1.02;;;;;;;;;;5105857;28;20047;-76
2024/01/16 14:20:29;;;;;;;0.90;0.80;;;;;;;;;;5105727;28;20058;-73
2024/01/16 14:23:01;;;;;;;2.47;1.08;;;;;;;;;;5105497;28;20063;-77
2024/01/16 14:25:31;;;;;;;2.65;0.80;;;;;;;;;;5105521;28;20125;-80
2024/01/16 14:28:04;;;;;;;2.95;0.95;;;;;;;;;;5105623;28;20047;-77
2024/01/16 14:30:38;;;;;;;1.98;0.88;;;;;;;;;;5105776;28;20044;-76
2024/01/16 14:33:12;;;;;;;2.00;0.93;;;;;;;;;;5105354;28;20052;-74
2024/01/16 14:35:43;;;;;;;8.02;1.50;;;;;;;;;;5105261;28;20048;-78
2024/01/16 14:38:13;;;;;;;4.47;1.00;;;;;;;;;;5105517;28;20054;-76
2024/01/16 14:40:43;;;;;;;3.85;1.10;;;;;;;;;;5105724;28;20428;-76
2024/01/16 14:43:15;;;;;;;4.22;0.95;;;;;;;;;;5105149;28;20052;-77
2024/01/16 14:45:45;;;;;;;12.90;2.08;;;;;;;;;;5104998;28;20047;-78
2024/01/16 14:48:16;;;;;;;3.88;1.00;;;;;;;;;;5105033;28;20052;-76
2024/01/16 14:50:49;;;;;;;5.72;1.33;;;;;;;;;;5105315;28;20043;-78
2024/01/16 14:53:21;;;;;;;1.95;1.00;;;;;;;;;;5104559;28;20631;-78
2024/01/16 14:55:53;;;;;;;1.77;0.90;;;;;;;;;;5104028;28;20465;-77
2024/01/16 14:58:23;;;;;;;1.88;1.00;;;;;;;;;;5105171;28;20082;-73
2024/01/16 15:00:55;;;;;;;3.28;1.20;;;;;;;;;;5104506;28;20055;-81
2024/01/16 15:03:27;;;;;;;6.60;1.25;;;;;;;;;;5103053;28;20056;-78
2024/01/16 15:05:57;;;;;;;2.13;1.15;;;;;;;;;;5105252;28;20043;-75
2024/01/16 15:08:31;;;;;;;1.88;1.27;;;;;;;;;;5106195;28;20048;-76
2024/01/16 15:11:02;;;;;;;4.80;1.80;;;;;;;;;;5105466;28;20048;-78
2024/01/16 15:13:33;;;;;;;5.90;1.92;;;;;;;;;;5104825;28;20051;-75